createdAt,value
2023-01-08T00:00:52.912Z,98164.69
2023-01-08T00:03:23.685Z,98159.63
2023-01-08T00:05:53.384Z,98162.84
2023-01-08T00:08:23.619Z,98161.00
2023-01-08T00:10:56.519Z,98155.81
2023-01-08T00:13:26.319Z,98161.78
2023-01-08T00:15:56.527Z,98153.41
2023-01-08T00:18:27.347Z,98159.50
2023-01-08T00:20:56.521Z,98157.22
2023-01-08T00:23:26.001Z,98161.34
2023-01-08T00:25:55.211Z,98164.63
2023-01-08T00:28:24.665Z,98169.94
2023-01-08T00:30:54.524Z,98164.84
2023-01-08T00:33:23.917Z,98171.19
2023-01-08T00:35:54.831Z,98175.91
2023-01-08T00:38:27.772Z,98160.59
2023-01-08T00:40:57.069Z,98154.00
2023-01-08T00:43:26.206Z,98157.22
2023-01-08T00:45:55.517Z,98160.53
2023-01-08T00:48:25.885Z,98159.00
2023-01-08T00:50:56.961Z,98156.72
2023-01-08T00:53:26.175Z,98164.31
2023-01-08T00:56:02.161Z,98166.38
2023-01-08T00:58:31.949Z,98160.13
2023-01-08T01:01:01.556Z,98158.53
2023-01-08T01:03:33.296Z,98163.34
2023-01-08T01:06:04.856Z,98162.91
2023-01-08T01:08:34.491Z,98166.91
2023-01-08T01:11:09.211Z,98162.53
2023-01-08T01:13:38.351Z,98162.53
2023-01-08T01:16:08.392Z,98164.84
2023-01-08T01:18:37.848Z,98164.50
2023-01-08T01:21:13.666Z,98165.66
2023-01-08T01:23:42.830Z,98153.44
2023-01-08T01:26:18.538Z,98145.16
2023-01-08T01:28:49.888Z,98151.84
2023-01-08T01:31:20.619Z,98152.19
2023-01-08T01:33:51.121Z,98147.47
2023-01-08T01:36:24.219Z,98141.94
2023-01-08T01:38:55.692Z,98140.78
2023-01-08T01:41:29.447Z,98130.88
2023-01-08T01:44:00.446Z,98133.38
2023-01-08T01:46:38.632Z,98133.44
2023-01-08T01:49:12.031Z,98129.75
2023-01-08T01:51:50.093Z,98142.25
2023-01-08T01:54:19.633Z,98140.38
2023-01-08T01:56:49.111Z,98137.88
2023-01-08T01:59:20.261Z,98130.28
2023-01-08T02:01:50.828Z,98122.94
2023-01-08T02:04:19.950Z,98127.44
2023-01-08T02:07:00.779Z,98112.88
2023-01-08T02:09:43.263Z,98118.63
2023-01-08T02:12:19.483Z,98118.38
2023-01-08T02:15:01.551Z,98119.03
2023-01-08T02:17:38.659Z,98111.19
2023-01-08T02:20:12.843Z,98100.34
2023-01-08T02:23:18.061Z,98098.13
2023-01-08T02:26:24.853Z,98086.53
2023-01-08T02:29:00.041Z,98091.25
2023-01-08T02:31:32.575Z,98085.50
2023-01-08T02:34:02.118Z,98090.19
2023-01-08T02:36:39.260Z,98093.09
2023-01-08T02:39:36.595Z,98097.00
2023-01-08T02:42:15.032Z,98096.69
2023-01-08T02:44:56.879Z,98094.91
2023-01-08T02:47:34.405Z,98099.63
2023-01-08T02:50:15.061Z,98103.38
2023-01-08T02:52:54.039Z,98093.56
2023-01-08T02:55:25.296Z,98095.47
2023-01-08T02:57:56.354Z,98083.03
2023-01-08T03:00:25.898Z,98074.81
2023-01-08T03:03:08.596Z,98081.50
2023-01-08T03:05:40.734Z,98074.34
2023-01-08T03:08:11.219Z,98080.75
2023-01-08T03:10:44.246Z,98088.84
2023-01-08T03:13:21.586Z,98090.25
2023-01-08T03:15:56.386Z,98081.25
2023-01-08T03:18:34.200Z,98077.69
2023-01-08T03:21:05.006Z,98080.97
2023-01-08T03:23:37.313Z,98072.47
2023-01-08T03:26:08.087Z,98074.53
2023-01-08T03:28:45.387Z,98066.97
2023-01-08T03:31:17.207Z,98067.41
2023-01-08T03:33:48.490Z,98064.19
2023-01-08T03:36:23.247Z,98052.50
2023-01-08T03:38:59.919Z,98044.69
2023-01-08T03:41:33.722Z,98055.97
2023-01-08T03:44:04.642Z,98048.38
2023-01-08T03:46:48.525Z,98054.59
2023-01-08T03:49:18.899Z,98038.53
2023-01-08T03:51:49.069Z,98038.75
2023-01-08T03:54:21.626Z,98032.78
2023-01-08T03:56:51.098Z,98027.97
2023-01-08T03:59:21.532Z,98020.84
2023-01-08T04:01:50.800Z,98021.97
2023-01-08T04:04:20.153Z,98006.56
2023-01-08T04:06:49.525Z,98008.88
2023-01-08T04:09:18.705Z,98001.16
2023-01-08T04:11:47.845Z,98005.69
2023-01-08T04:14:16.973Z,98010.97
2023-01-08T04:16:50.240Z,98003.16
2023-01-08T04:19:19.446Z,98014.84
2023-01-08T04:21:50.966Z,98005.19
2023-01-08T04:24:20.947Z,97997.59
2023-01-08T04:26:50.282Z,98000.69
2023-01-08T04:29:19.403Z,98008.53
2023-01-08T04:31:50.011Z,98007.03
2023-01-08T04:34:19.103Z,97992.53
2023-01-08T04:36:48.433Z,97990.69
2023-01-08T04:39:17.813Z,97988.63
2023-01-08T04:41:46.967Z,97984.84
2023-01-08T04:44:16.047Z,97990.03
2023-01-08T04:46:45.274Z,97991.84
2023-01-08T04:49:16.231Z,97987.03
2023-01-08T04:51:45.385Z,97990.00
2023-01-08T04:54:14.632Z,97995.75
2023-01-08T04:56:43.807Z,97996.22
2023-01-08T04:59:13.092Z,97991.16
2023-01-08T05:01:42.373Z,97994.72
2023-01-08T05:04:12.832Z,97991.38
2023-01-08T05:06:43.412Z,97996.28
2023-01-08T05:09:12.985Z,97981.78
2023-01-08T05:11:43.319Z,97984.06
2023-01-08T05:14:12.703Z,97977.50
2023-01-08T05:16:41.926Z,97982.31
2023-01-08T05:19:11.050Z,97970.59
2023-01-08T05:21:40.273Z,97968.28
2023-01-08T05:24:11.042Z,97965.06
2023-01-08T05:26:40.223Z,97966.66
2023-01-08T05:29:09.389Z,97977.00
2023-01-08T05:31:38.600Z,97973.34
2023-01-08T05:34:07.670Z,97980.13
2023-01-08T05:36:36.764Z,97981.81
2023-01-08T05:39:05.956Z,97983.34
2023-01-08T05:41:36.491Z,97968.88
2023-01-08T05:44:06.046Z,97981.63
2023-01-08T05:46:35.290Z,97980.25
2023-01-08T05:49:04.464Z,97969.47
2023-01-08T05:51:33.659Z,97966.94
2023-01-08T05:54:02.823Z,97971.97
2023-01-08T05:56:32.381Z,97962.25
2023-01-08T05:59:03.062Z,97961.22
2023-01-08T06:01:34.599Z,97956.28
2023-01-08T06:04:04.188Z,97952.97
2023-01-08T06:06:33.535Z,97956.75
2023-01-08T06:09:02.662Z,97956.63
2023-01-08T06:11:31.860Z,97951.19
2023-01-08T06:14:02.424Z,97945.69
2023-01-08T06:16:31.508Z,97953.69
2023-01-08T06:19:00.655Z,97944.19
2023-01-08T06:21:29.789Z,97942.22
2023-01-08T06:23:58.885Z,97941.03
2023-01-08T06:26:28.057Z,97945.25
2023-01-08T06:28:57.307Z,97946.91
2023-01-08T06:31:28.040Z,97945.28
2023-01-08T06:33:57.183Z,97946.63
2023-01-08T06:36:26.380Z,97951.09
2023-01-08T06:38:55.904Z,97946.41
2023-01-08T06:41:25.152Z,97952.97
2023-01-08T06:43:54.420Z,97951.22
2023-01-08T06:46:23.739Z,97940.06
2023-01-08T06:48:54.268Z,97929.59
2023-01-08T06:51:23.407Z,97938.56
2023-01-08T06:53:53.328Z,97940.88
2023-01-08T06:56:22.386Z,97938.56
2023-01-08T06:58:51.566Z,97932.59
2023-01-08T07:01:25.729Z,97932.81
2023-01-08T07:03:57.453Z,97930.81
2023-01-08T07:06:26.637Z,97935.03
2023-01-08T07:08:55.974Z,97936.88
2023-01-08T07:11:25.433Z,97939.16
2023-01-08T07:13:56.625Z,97935.97
2023-01-08T07:16:25.886Z,97949.69
2023-01-08T07:18:56.517Z,97946.69
2023-01-08T07:21:25.665Z,97942.28
2023-01-08T07:23:54.897Z,97936.13
2023-01-08T07:26:24.137Z,97942.91
2023-01-08T07:28:53.695Z,97940.56
2023-01-08T07:31:23.009Z,97940.91
2023-01-08T07:33:52.296Z,97950.97
2023-01-08T07:36:24.381Z,97945.06
2023-01-08T07:38:53.512Z,97950.94
2023-01-08T07:41:22.740Z,97956.25
2023-01-08T07:43:55.233Z,97941.13
2023-01-08T07:46:24.463Z,97936.22
2023-01-08T07:48:53.692Z,97948.72
2023-01-08T07:51:24.580Z,97947.56
2023-01-08T07:53:56.239Z,97948.38
2023-01-08T07:56:26.210Z,97955.41
2023-01-08T07:58:55.362Z,97955.50
2023-01-08T08:01:26.299Z,97937.78
2023-01-08T08:03:55.469Z,97936.34
2023-01-08T08:06:26.057Z,97937.53
2023-01-08T08:08:58.261Z,97938.78
2023-01-08T08:11:27.477Z,97933.66
2023-01-08T08:13:56.822Z,97920.59
2023-01-08T08:16:26.104Z,97929.47
2023-01-08T08:18:55.341Z,97922.53
2023-01-08T08:21:26.089Z,97914.69
2023-01-08T08:23:55.169Z,97920.22
2023-01-08T08:26:24.819Z,97912.38
2023-01-08T08:28:53.973Z,97902.22
2023-01-08T08:31:23.294Z,97891.31
2023-01-08T08:33:52.405Z,97881.13
2023-01-08T08:36:21.846Z,97876.72
2023-01-08T08:38:52.668Z,97876.25
2023-01-08T08:41:21.939Z,97872.78
2023-01-08T08:43:52.553Z,97876.88
2023-01-08T08:46:21.950Z,97872.19
2023-01-08T08:48:51.166Z,97874.81
2023-01-08T08:51:20.314Z,97863.69
2023-01-08T08:53:49.576Z,97867.81
2023-01-08T08:56:20.417Z,97874.16
2023-01-08T08:58:50.822Z,97868.97
2023-01-08T09:01:20.062Z,97867.53
2023-01-08T09:03:49.926Z,97859.34
2023-01-08T09:06:19.036Z,97872.34
2023-01-08T09:08:48.246Z,97864.09
2023-01-08T09:11:17.615Z,97848.84
2023-01-08T09:13:48.252Z,97860.94
2023-01-08T09:16:17.546Z,97858.78
2023-01-08T09:18:47.314Z,97843.88
2023-01-08T09:21:17.046Z,97832.22
2023-01-08T09:23:46.557Z,97823.88
2023-01-08T09:26:16.806Z,97830.03
2023-01-08T09:28:50.728Z,97823.56
2023-01-08T09:31:20.152Z,97826.28
2023-01-08T09:33:52.393Z,97799.72
2023-01-08T09:36:27.340Z,97797.63
2023-01-08T09:38:56.877Z,97801.28
2023-01-08T09:41:30.377Z,97793.06
2023-01-08T09:44:04.121Z,97779.06
2023-01-08T09:46:33.816Z,97785.13
2023-01-08T09:49:09.213Z,97790.44
2023-01-08T09:51:40.434Z,97795.81
2023-01-08T09:54:16.303Z,97790.56
2023-01-08T09:56:47.699Z,97783.19
2023-01-08T09:59:20.273Z,97795.09
2023-01-08T10:01:50.292Z,97806.31
2023-01-08T10:04:21.822Z,97794.78
2023-01-08T10:06:55.500Z,97805.22
2023-01-08T10:09:29.399Z,97797.13
2023-01-08T10:12:06.316Z,97781.91
2023-01-08T10:14:48.061Z,97792.94
2023-01-08T10:17:28.423Z,97785.59
2023-01-08T10:20:00.740Z,97775.56
2023-01-08T10:22:34.551Z,97778.97
2023-01-08T10:25:14.234Z,97774.38
2023-01-08T10:27:52.750Z,97777.34
2023-01-08T10:30:41.516Z,97761.91
2023-01-08T10:33:19.343Z,97773.88
2023-01-08T10:35:57.255Z,97766.69
2023-01-08T10:38:33.588Z,97763.53
2023-01-08T10:41:07.052Z,97769.28
2023-01-08T10:43:46.674Z,97765.22
2023-01-08T10:46:25.335Z,97754.03
2023-01-08T10:48:58.279Z,97746.56
2023-01-08T10:51:31.849Z,97745.69
2023-01-08T10:54:14.078Z,97734.38
2023-01-08T10:56:45.967Z,97730.34
2023-01-08T10:59:20.457Z,97718.38
2023-01-08T11:01:53.540Z,97716.94
2023-01-08T11:04:28.167Z,97718.69
2023-01-08T11:07:00.031Z,97708.47
2023-01-08T11:09:33.787Z,97708.59
2023-01-08T11:12:03.226Z,97707.09
2023-01-08T11:14:35.691Z,97700.81
2023-01-08T11:17:13.068Z,97707.22
2023-01-08T11:19:42.281Z,97706.00
2023-01-08T11:22:21.635Z,97710.38
2023-01-08T11:24:52.306Z,97713.88
2023-01-08T11:27:31.890Z,97705.50
2023-01-08T11:30:08.036Z,97697.50
2023-01-08T11:32:49.425Z,97681.59
2023-01-08T11:35:22.308Z,97680.72
2023-01-08T11:37:55.534Z,97675.84
2023-01-08T11:40:38.625Z,97671.59
2023-01-08T11:43:26.144Z,97672.34
2023-01-08T11:46:27.009Z,97667.75
2023-01-08T11:49:29.117Z,97657.47
2023-01-08T11:52:25.451Z,97661.25
2023-01-08T11:55:25.384Z,97654.16
2023-01-08T11:58:12.162Z,97646.69
2023-01-08T12:00:58.707Z,97658.66
2023-01-08T12:03:37.546Z,97645.16
2023-01-08T12:06:21.130Z,97651.94
2023-01-08T12:09:01.187Z,97646.72
2023-01-08T12:11:32.767Z,97644.34
2023-01-08T12:14:21.405Z,97645.94
2023-01-08T12:17:12.943Z,97650.72
2023-01-08T12:20:01.447Z,97631.59
2023-01-08T12:22:47.608Z,97632.66
2023-01-08T12:25:47.931Z,97641.28
2023-01-08T12:28:49.679Z,97627.41
2023-01-08T12:32:05.018Z,97632.22
2023-01-08T12:34:48.872Z,97629.56
2023-01-08T12:37:24.527Z,97625.97
2023-01-08T12:40:07.171Z,97626.38
2023-01-08T12:42:47.201Z,97628.00
2023-01-08T12:45:28.393Z,97634.38
2023-01-08T12:48:04.159Z,97627.63
2023-01-08T12:50:45.488Z,97606.94
2023-01-08T12:53:28.089Z,97596.94
2023-01-08T12:56:06.681Z,97604.50
2023-01-08T12:58:51.494Z,97615.72
2023-01-08T13:01:38.117Z,97604.97
2023-01-08T13:04:10.689Z,97609.31
2023-01-08T13:06:54.004Z,97605.22
2023-01-08T13:09:29.060Z,97610.00
2023-01-08T13:12:01.968Z,97615.59
2023-01-08T13:14:48.166Z,97605.25
2023-01-08T13:17:21.415Z,97608.91
2023-01-08T13:19:56.799Z,97603.75
2023-01-08T13:22:29.228Z,97611.72
2023-01-08T13:25:31.647Z,97606.56
2023-01-08T13:28:18.988Z,97599.78
2023-01-08T13:30:50.062Z,97588.63
2023-01-08T13:33:40.447Z,97607.69
2023-01-08T13:36:23.748Z,97605.31
2023-01-08T13:39:23.500Z,97625.91
2023-01-08T13:42:07.075Z,97605.59
2023-01-08T13:44:42.625Z,97616.69
2023-01-08T13:47:23.485Z,97618.59
2023-01-08T13:49:56.467Z,97614.53
2023-01-08T13:52:34.864Z,97608.94
2023-01-08T13:55:13.214Z,97613.69
2023-01-08T13:57:46.811Z,97602.47
2023-01-08T14:00:25.530Z,97619.94
2023-01-08T14:02:58.894Z,97609.19
2023-01-08T14:05:30.678Z,97618.28
2023-01-08T14:08:00.379Z,97636.91
2023-01-08T14:10:33.405Z,97641.22
2023-01-08T14:13:09.811Z,97647.56
2023-01-08T14:15:41.065Z,97638.00
2023-01-08T14:18:16.807Z,97643.13
2023-01-08T14:20:50.172Z,97651.06
2023-01-08T14:23:25.019Z,97645.06
2023-01-08T14:25:55.287Z,97651.75
2023-01-08T14:28:25.003Z,97639.41
2023-01-08T14:30:59.650Z,97646.53
2023-01-08T14:33:34.654Z,97643.22
2023-01-08T14:36:08.549Z,97646.00
2023-01-08T14:38:41.001Z,97649.56
2023-01-08T14:41:14.724Z,97643.97
2023-01-08T14:43:46.594Z,97653.91
2023-01-08T14:46:23.588Z,97658.28
2023-01-08T14:48:54.544Z,97647.06
2023-01-08T14:51:27.745Z,97662.88
2023-01-08T14:54:01.942Z,97659.63
2023-01-08T14:56:38.853Z,97657.25
2023-01-08T14:59:10.457Z,97659.53
2023-01-08T15:01:42.019Z,97665.00
2023-01-08T15:04:19.112Z,97659.09
2023-01-08T15:06:50.829Z,97657.50
2023-01-08T15:09:24.876Z,97665.75
2023-01-08T15:11:58.583Z,97651.06
2023-01-08T15:14:30.996Z,97654.66
2023-01-08T15:17:12.804Z,97649.47
2023-01-08T15:19:48.468Z,97651.06
2023-01-08T15:22:23.896Z,97645.41
2023-01-08T15:24:59.477Z,97646.94
2023-01-08T15:27:31.449Z,97649.69
2023-01-08T15:30:03.747Z,97645.22
2023-01-08T15:32:37.263Z,97653.22
2023-01-08T15:35:16.535Z,97665.44
2023-01-08T15:37:46.321Z,97652.72
2023-01-08T15:40:15.713Z,97665.31
2023-01-08T15:43:02.890Z,97656.47
2023-01-08T15:45:34.914Z,97646.91
2023-01-08T15:48:09.081Z,97659.84
2023-01-08T15:50:42.882Z,97662.56
2023-01-08T15:53:18.705Z,97659.78
2023-01-08T15:55:49.262Z,97673.47
2023-01-08T15:58:19.915Z,97662.22
2023-01-08T16:00:50.370Z,97671.94
2023-01-08T16:03:22.869Z,97676.25
2023-01-08T16:05:52.169Z,97658.66
2023-01-08T16:08:21.902Z,97657.72
2023-01-08T16:10:53.486Z,97661.66
2023-01-08T16:13:22.977Z,97658.09
2023-01-08T16:15:57.431Z,97650.03
2023-01-08T16:18:29.784Z,97662.28
2023-01-08T16:21:02.516Z,97659.94
2023-01-08T16:23:31.988Z,97648.38
2023-01-08T16:26:06.112Z,97656.00
2023-01-08T16:28:35.240Z,97659.22
2023-01-08T16:31:05.555Z,97651.25
2023-01-08T16:33:36.221Z,97661.59
2023-01-08T16:36:08.657Z,97659.31
2023-01-08T16:38:38.467Z,97662.41
2023-01-08T16:41:07.711Z,97655.78
2023-01-08T16:43:43.178Z,97649.19
2023-01-08T16:46:14.009Z,97656.31
2023-01-08T16:48:44.953Z,97659.63
2023-01-08T16:51:16.005Z,97663.25
2023-01-08T16:53:45.352Z,97662.47
2023-01-08T16:56:15.903Z,97665.78
2023-01-08T16:58:45.582Z,97666.22
2023-01-08T17:01:15.727Z,97667.50
2023-01-08T17:03:47.496Z,97675.81
2023-01-08T17:06:16.956Z,97669.84
2023-01-08T17:08:46.577Z,97671.44
2023-01-08T17:11:18.805Z,97671.44
2023-01-08T17:13:49.308Z,97658.81
2023-01-08T17:16:20.235Z,97663.69
2023-01-08T17:18:50.920Z,97665.97
2023-01-08T17:21:20.989Z,97681.22
2023-01-08T17:23:50.516Z,97673.97
2023-01-08T17:26:20.032Z,97678.66
2023-01-08T17:28:49.364Z,97674.72
2023-01-08T17:31:20.962Z,97668.31
2023-01-08T17:33:52.748Z,97679.84
2023-01-08T17:36:26.121Z,97671.50
2023-01-08T17:38:56.395Z,97677.06
2023-01-08T17:41:42.651Z,97679.03
2023-01-08T17:44:14.289Z,97674.28
2023-01-08T17:46:48.126Z,97677.06
2023-01-08T17:49:20.098Z,97679.09
2023-01-08T17:51:49.285Z,97679.50
2023-01-08T17:54:19.848Z,97683.97
2023-01-08T17:56:49.620Z,97678.91
2023-01-08T17:59:20.728Z,97687.59
2023-01-08T18:01:53.498Z,97681.69
2023-01-08T18:04:25.823Z,97684.56
2023-01-08T18:06:55.151Z,97673.38
2023-01-08T18:09:24.459Z,97676.00
2023-01-08T18:11:53.818Z,97668.00
2023-01-08T18:14:23.016Z,97666.81
2023-01-08T18:16:53.105Z,97665.22
2023-01-08T18:19:22.547Z,97668.31
2023-01-08T18:21:53.451Z,97665.16
2023-01-08T18:24:22.745Z,97659.59
2023-01-08T18:26:52.740Z,97663.56
2023-01-08T18:29:23.562Z,97656.47
2023-01-08T18:31:53.072Z,97659.06
2023-01-08T18:34:23.570Z,97661.03
2023-01-08T18:36:55.322Z,97659.81
2023-01-08T18:39:26.606Z,97657.91
2023-01-08T18:42:13.614Z,97648.78
2023-01-08T18:44:44.851Z,97658.38
2023-01-08T18:47:18.472Z,97646.03
2023-01-08T18:49:50.205Z,97640.47
2023-01-08T18:52:23.652Z,97651.63
2023-01-08T18:54:53.299Z,97642.06
2023-01-08T18:57:23.653Z,97628.59
2023-01-08T18:59:53.388Z,97630.94
2023-01-08T19:02:29.181Z,97628.59
2023-01-08T19:05:03.603Z,97634.75
2023-01-08T19:08:00.974Z,97633.03
2023-01-08T19:10:33.761Z,97617.84
2023-01-08T19:13:10.574Z,97616.59
2023-01-08T19:15:39.964Z,97608.88
2023-01-08T19:18:11.139Z,97613.97
2023-01-08T19:20:43.332Z,97613.19
2023-01-08T19:23:14.995Z,97617.19
2023-01-08T19:25:44.577Z,97618.94
2023-01-08T19:28:13.892Z,97619.25
2023-01-08T19:30:43.426Z,97611.16
2023-01-08T19:33:13.305Z,97620.44
2023-01-08T19:35:42.934Z,97622.56
2023-01-08T19:38:13.700Z,97619.06
2023-01-08T19:40:42.983Z,97612.34
2023-01-08T19:43:31.775Z,97612.19
2023-01-08T19:46:06.481Z,97619.44
2023-01-08T19:48:37.620Z,97607.00
2023-01-08T19:51:10.713Z,97592.44
2023-01-08T19:53:41.739Z,97584.00
2023-01-08T19:56:16.397Z,97590.25
2023-01-08T19:58:50.233Z,97590.19
2023-01-08T20:01:25.894Z,97589.31
2023-01-08T20:03:57.537Z,97592.41
2023-01-08T20:06:29.605Z,97593.03
2023-01-08T20:09:01.752Z,97584.97
2023-01-08T20:11:31.733Z,97592.06
2023-01-08T20:14:02.974Z,97593.88
2023-01-08T20:16:33.354Z,97582.88
2023-01-08T20:19:04.722Z,97591.44
2023-01-08T20:21:35.236Z,97579.50
2023-01-08T20:24:09.804Z,97570.22
2023-01-08T20:26:39.727Z,97557.81
2023-01-08T20:29:10.462Z,97564.06
2023-01-08T20:31:41.322Z,97559.13
2023-01-08T20:34:14.518Z,97556.84
2023-01-08T20:36:46.523Z,97550.53
2023-01-08T20:39:19.072Z,97544.94
2023-01-08T20:42:00.807Z,97539.31
2023-01-08T20:44:33.261Z,97540.88
2023-01-08T20:47:04.143Z,97534.78
2023-01-08T20:49:35.471Z,97526.09
2023-01-08T20:52:06.375Z,97522.25
2023-01-08T20:54:36.997Z,97524.69
2023-01-08T20:57:06.341Z,97532.00
2023-01-08T20:59:38.367Z,97515.81
2023-01-08T21:02:08.102Z,97516.94
2023-01-08T21:04:41.546Z,97512.03
2023-01-08T21:07:11.069Z,97507.34
2023-01-08T21:09:41.921Z,97507.25
2023-01-08T21:12:13.512Z,97495.97
2023-01-08T21:14:43.579Z,97502.91
2023-01-08T21:17:13.293Z,97486.25
2023-01-08T21:19:46.186Z,97484.66
2023-01-08T21:22:15.818Z,97467.13
2023-01-08T21:24:46.935Z,97485.75
2023-01-08T21:27:16.665Z,97473.22
2023-01-08T21:29:49.081Z,97473.59
2023-01-08T21:32:20.346Z,97465.72
2023-01-08T21:34:49.751Z,97462.66
2023-01-08T21:37:21.627Z,97462.66
2023-01-08T21:39:52.306Z,97465.00
2023-01-08T21:42:38.959Z,97449.56
2023-01-08T21:45:26.045Z,97444.47
2023-01-08T21:47:59.919Z,97441.38
2023-01-08T21:50:29.119Z,97442.97
2023-01-08T21:53:15.985Z,97439.78
2023-01-08T21:55:46.821Z,97441.69
2023-01-08T21:58:16.507Z,97438.91
2023-01-08T22:00:45.906Z,97449.34
2023-01-08T22:03:15.249Z,97450.91
2023-01-08T22:05:44.524Z,97451.63
2023-01-08T22:08:18.485Z,97442.31
2023-01-08T22:10:49.251Z,97444.09
2023-01-08T22:13:18.593Z,97448.78
2023-01-08T22:15:48.027Z,97444.25
2023-01-08T22:18:17.237Z,97434.88
2023-01-08T22:20:46.825Z,97430.41
2023-01-08T22:23:16.148Z,97428.50
2023-01-08T22:25:49.478Z,97417.16
2023-01-08T22:28:19.089Z,97414.81
2023-01-08T22:30:48.534Z,97414.81
2023-01-08T22:33:17.993Z,97405.97
2023-01-08T22:35:47.763Z,97401.63
2023-01-08T22:38:17.319Z,97400.44
2023-01-08T22:40:46.540Z,97395.66
2023-01-08T22:43:17.264Z,97378.56
2023-01-08T22:45:54.076Z,97377.66
2023-01-08T22:48:24.074Z,97376.25
2023-01-08T22:50:53.529Z,97377.00
2023-01-08T22:53:24.444Z,97372.78
2023-01-08T22:55:53.651Z,97374.75
2023-01-08T22:58:28.775Z,97372.28
2023-01-08T23:00:58.180Z,97358.00
2023-01-08T23:03:29.280Z,97368.22
2023-01-08T23:06:03.003Z,97365.88
2023-01-08T23:08:34.231Z,97352.38
2023-01-08T23:11:03.881Z,97343.69
2023-01-08T23:13:35.874Z,97345.19
2023-01-08T23:16:07.782Z,97344.44
2023-01-08T23:18:39.885Z,97355.94
2023-01-08T23:21:12.548Z,97354.00
2023-01-08T23:23:41.781Z,97342.97
2023-01-08T23:26:13.166Z,97335.09
2023-01-08T23:28:44.000Z,97339.88
2023-01-08T23:31:18.337Z,97332.78
2023-01-08T23:33:49.810Z,97332.91
2023-01-08T23:36:21.395Z,97320.25
2023-01-08T23:38:53.603Z,97312.19
2023-01-08T23:41:32.040Z,97318.56
2023-01-08T23:44:06.812Z,97309.81
2023-01-08T23:46:36.567Z,97313.72
2023-01-08T23:49:07.327Z,97298.28
2023-01-08T23:51:36.715Z,97291.56
2023-01-08T23:54:06.104Z,97294.91
2023-01-08T23:56:35.432Z,97284.94
2023-01-08T23:59:06.387Z,97282.28
